Time;durP1;ratioP1;P1;durP2;ratioP2;P2;SDS_P1;SDS_P2;PMS_P1;PMS_P2;Temp;Humidity;BMP_temperature;BMP_pressure;BME280_temperature;BME280_humidity;BME280_pressure;Samples;Min_cycle;Max_cycle;Signal;HPM_P1;HPM_P2
2023/03/12 00:02:09;;;;;;;8.07;5.50;;;-0.10;99.90;;;;;;4979040;28;20824;-77
2023/03/12 00:04:35;;;;;;;9.83;5.43;;;-0.10;99.90;;;;;;4980914;28;20499;-78
2023/03/12 00:07:02;;;;;;;9.87;5.83;;;-0.20;99.90;;;;;;4980329;28;20509;-78
2023/03/12 00:09:28;;;;;;;9.73;5.55;;;-0.10;99.90;;;;;;4979631;28;20434;-77
2023/03/12 00:11:53;;;;;;;9.00;5.63;;;-0.10;99.90;;;;;;4976533;28;20419;-78
2023/03/12 00:14:19;;;;;;;9.07;6.53;;;-0.10;99.90;;;;;;4979935;28;20997;-78
2023/03/12 00:16:45;;;;;;;11.77;6.90;;;-0.10;99.90;;;;;;4980864;28;20468;-79
2023/03/12 00:19:12;;;;;;;12.43;8.90;;;-0.10;99.90;;;;;;4980171;28;20920;-78
2023/03/12 00:21:38;;;;;;;27.40;18.20;;;0.00;99.90;;;;;;4979040;28;20439;-78
2023/03/12 00:24:04;;;;;;;17.63;13.15;;;-0.10;99.90;;;;;;4977229;28;20438;-77
2023/03/12 00:26:30;;;;;;;14.52;10.38;;;-0.20;99.90;;;;;;4981151;28;20418;-77
2023/03/12 00:28:56;;;;;;;18.48;12.57;;;-0.20;99.90;;;;;;4978252;28;20432;-78
2023/03/12 00:31:27;;;;;;;20.20;13.95;;;-0.10;99.90;;;;;;4987663;28;20429;-79
2023/03/12 00:33:54;;;;;;;21.98;15.15;;;-0.10;99.90;;;;;;4979050;28;20983;-78
2023/03/12 00:36:23;;;;;;;26.70;16.02;;;-0.10;99.90;;;;;;4960022;28;20426;-77
2023/03/12 00:38:50;;;;;;;28.08;18.98;;;-0.10;99.90;;;;;;4980858;28;20442;-77
2023/03/12 00:41:18;;;;;;;31.52;20.52;;;-0.10;99.90;;;;;;4996112;28;20440;-77
2023/03/12 00:43:44;;;;;;;31.25;22.05;;;-0.20;99.90;;;;;;5010161;28;20436;-77
2023/03/12 00:46:10;;;;;;;35.57;22.63;;;-0.10;99.90;;;;;;4984578;28;20540;-78
2023/03/12 00:48:36;;;;;;;28.43;19.07;;;-0.10;99.90;;;;;;4986701;28;20431;-77
2023/03/12 00:51:01;;;;;;;30.73;18.93;;;-0.10;99.90;;;;;;4982452;28;20419;-77
2023/03/12 00:53:27;;;;;;;40.38;25.58;;;-0.10;99.90;;;;;;4993031;28;20468;-76
2023/03/12 00:55:53;;;;;;;36.85;22.75;;;0.00;99.90;;;;;;4992591;28;20439;-77
2023/03/12 00:58:18;;;;;;;33.75;21.98;;;-0.10;99.90;;;;;;4990037;28;20438;-79
2023/03/12 01:00:44;;;;;;;32.63;19.00;;;-0.10;99.90;;;;;;4985472;28;20464;-78
2023/03/12 01:03:10;;;;;;;32.38;17.27;;;-0.10;99.90;;;;;;4990647;28;20926;-77
2023/03/12 01:05:36;;;;;;;27.88;16.23;;;-0.10;99.90;;;;;;4990564;28;20944;-77
2023/03/12 01:08:07;;;;;;;29.85;15.82;;;0.00;99.90;;;;;;4971331;28;20537;-79
2023/03/12 01:10:33;;;;;;;19.20;11.48;;;0.00;99.90;;;;;;4995095;28;20449;-78
2023/03/12 01:12:59;;;;;;;16.65;9.95;;;0.00;99.90;;;;;;4996166;28;20454;-78
2023/03/12 01:15:28;;;;;;;17.02;9.00;;;0.00;99.90;;;;;;4985719;28;20513;-78
2023/03/12 01:17:54;;;;;;;17.03;9.23;;;-0.10;99.90;;;;;;4998849;28;20849;-79
2023/03/12 01:20:21;;;;;;;17.67;10.88;;;-0.20;99.90;;;;;;4995820;28;20436;-77
2023/03/12 01:22:48;;;;;;;21.80;13.27;;;0.00;99.90;;;;;;4988822;28;20509;-78
2023/03/12 01:25:13;;;;;;;24.80;15.45;;;0.00;99.90;;;;;;4984395;28;20430;-77
2023/03/12 01:27:39;;;;;;;21.73;12.27;;;0.00;99.90;;;;;;4981578;28;20419;-78
2023/03/12 01:30:05;;;;;;;14.27;8.73;;;0.10;99.90;;;;;;4984931;28;20439;-78
2023/03/12 01:32:32;;;;;;;20.35;9.52;;;0.00;99.90;;;;;;4991082;28;20418;-77
2023/03/12 01:34:59;;;;;;;25.50;14.48;;;0.10;99.90;;;;;;4993084;28;20433;-78
2023/03/12 01:37:25;;;;;;;29.15;16.17;;;0.00;99.90;;;;;;4988002;28;20423;-78
2023/03/12 01:39:51;;;;;;;26.40;14.30;;;0.10;99.90;;;;;;4981159;28;20503;-79
2023/03/12 01:42:17;;;;;;;31.33;16.73;;;0.20;99.90;;;;;;4983996;28;20526;-77
2023/03/12 01:45:30;;;;;;;27.08;15.38;;;0.10;99.90;;;;;;4982971;28;20430;-77
2023/03/12 01:47:55;;;;;;;18.88;10.45;;;0.10;99.90;;;;;;5012157;28;20510;-79
2023/03/12 01:50:21;;;;;;;20.42;10.35;;;0.10;99.90;;;;;;4982652;28;21300;-77
2023/03/12 01:52:47;;;;;;;23.15;12.57;;;0.10;99.90;;;;;;4990857;28;20501;-78
2023/03/12 01:55:15;;;;;;;26.23;13.87;;;0.20;99.90;;;;;;4966498;28;20434;-78
2023/03/12 01:57:55;;;;;;;28.08;14.25;;;0.30;99.90;;;;;;4986898;28;20437;-78
2023/03/12 02:00:24;;;;;;;33.95;14.15;;;0.40;99.90;;;;;;4981157;28;20476;-78
2023/03/12 02:02:51;;;;;;;30.88;15.27;;;0.30;99.90;;;;;;4982190;28;20833;-78
2023/03/12 02:05:20;;;;;;;28.40;13.95;;;0.30;99.90;;;;;;4981616;28;20423;-78
2023/03/12 02:07:46;;;;;;;23.20;12.45;;;0.40;99.90;;;;;;4984331;28;20520;-78
2023/03/12 02:10:12;;;;;;;32.05;12.82;;;0.40;99.90;;;;;;4980296;28;20437;-78
2023/03/12 02:12:38;;;;;;;30.50;14.37;;;0.40;99.90;;;;;;5011378;28;20444;-78
2023/03/12 02:15:04;;;;;;;23.20;12.00;;;0.30;99.90;;;;;;4984911;28;20448;-78
2023/03/12 02:17:31;;;;;;;28.48;14.85;;;0.40;99.90;;;;;;4985428;28;20455;-78
2023/03/12 02:20:37;;;;;;;39.15;20.83;;;0.40;99.90;;;;;;4982877;28;20425;-78
2023/03/12 02:23:20;;;;;;;15.50;9.88;;;0.50;99.90;;;;;;4968635;28;20451;-78
2023/03/12 02:25:50;;;;;;;16.52;9.27;;;0.50;99.90;;;;;;4979607;28;20513;-78
2023/03/12 02:28:18;;;;;;;14.18;8.88;;;0.40;99.90;;;;;;4994594;28;20481;-78
2023/03/12 02:30:48;;;;;;;13.85;8.02;;;0.60;99.90;;;;;;4972613;28;20462;-78
2023/03/12 02:33:14;;;;;;;13.50;6.72;;;0.50;99.90;;;;;;4982311;28;20425;-78
2023/03/12 02:35:41;;;;;;;12.13;6.40;;;0.60;99.90;;;;;;4981396;28;20473;-78
2023/03/12 02:38:32;;;;;;;10.07;5.97;;;0.50;99.90;;;;;;4979355;28;20987;-78
2023/03/12 02:41:04;;;;;;;13.75;6.68;;;0.60;99.90;;;;;;4981995;28;20509;-77
2023/03/12 02:43:30;;;;;;;11.13;5.38;;;0.60;99.90;;;;;;4983517;28;20444;-77
2023/03/12 02:45:55;;;;;;;8.35;4.93;;;0.60;99.90;;;;;;4987269;28;20549;-77
2023/03/12 02:48:21;;;;;;;9.57;5.78;;;0.60;99.90;;;;;;4979742;28;20439;-78
2023/03/12 02:50:47;;;;;;;9.18;5.32;;;0.60;99.90;;;;;;4981593;28;20441;-78
2023/03/12 02:53:12;;;;;;;9.97;4.67;;;0.70;99.90;;;;;;4981942;28;20490;-78
2023/03/12 02:55:38;;;;;;;10.17;5.10;;;0.60;99.90;;;;;;4980190;28;20789;-79
2023/03/12 02:58:04;;;;;;;8.90;5.10;;;0.70;99.90;;;;;;4983535;28;20428;-78
2023/03/12 03:00:31;;;;;;;8.37;5.23;;;0.70;99.90;;;;;;4982547;28;20418;-78
2023/03/12 03:02:58;;;;;;;9.27;4.55;;;0.70;99.90;;;;;;5010037;28;20451;-79
2023/03/12 03:05:24;;;;;;;8.33;4.77;;;0.60;99.90;;;;;;4984437;28;20777;-78
2023/03/12 03:07:50;;;;;;;7.13;3.97;;;0.50;99.90;;;;;;4981858;28;20438;-78
2023/03/12 03:10:16;;;;;;;7.03;4.17;;;0.60;99.90;;;;;;4980770;28;20898;-78
2023/03/12 03:12:42;;;;;;;9.20;4.40;;;0.70;99.90;;;;;;4980776;28;20430;-77
2023/03/12 03:15:08;;;;;;;7.07;3.63;;;0.60;99.90;;;;;;4980980;28;20422;-78
2023/03/12 03:17:34;;;;;;;9.20;3.40;;;0.60;99.90;;;;;;5011041;28;20457;-77
2023/03/12 03:20:00;;;;;;;8.75;4.25;;;0.60;99.90;;;;;;4982450;28;20427;-78
2023/03/12 03:22:26;;;;;;;8.63;3.65;;;0.60;99.90;;;;;;4980649;28;20444;-78
2023/03/12 03:24:53;;;;;;;8.03;3.43;;;0.70;99.90;;;;;;4979446;28;20893;-77
2023/03/12 03:27:19;;;;;;;6.47;3.03;;;0.70;99.90;;;;;;4980356;28;20956;-78
2023/03/12 03:29:45;;;;;;;6.45;2.97;;;0.70;99.90;;;;;;4979006;28;20430;-77
2023/03/12 03:32:12;;;;;;;9.43;3.60;;;0.70;99.90;;;;;;4975931;28;20529;-78
2023/03/12 03:34:38;;;;;;;6.25;2.90;;;0.70;99.90;;;;;;4978020;28;20517;-79
2023/03/12 03:37:04;;;;;;;6.18;3.47;;;0.70;99.90;;;;;;4986736;28;20947;-78
2023/03/12 03:39:30;;;;;;;4.85;3.35;;;0.70;99.90;;;;;;4984512;28;20451;-78
2023/03/12 03:41:55;;;;;;;7.35;3.10;;;0.70;99.90;;;;;;4981603;28;20448;-79
2023/03/12 03:44:21;;;;;;;9.88;3.53;;;0.80;99.90;;;;;;4974766;28;20459;-77
2023/03/12 03:46:48;;;;;;;6.13;3.03;;;0.70;99.90;;;;;;4979072;28;20434;-79
2023/03/12 03:49:14;;;;;;;7.18;3.75;;;0.80;99.90;;;;;;5011120;28;20460;-78
2023/03/12 03:51:43;;;;;;;9.87;4.37;;;0.80;99.90;;;;;;4983943;28;20517;-76
2023/03/12 03:54:09;;;;;;;9.43;4.13;;;0.80;99.90;;;;;;4976299;28;20467;-76
2023/03/12 03:56:35;;;;;;;13.60;4.63;;;0.80;99.90;;;;;;4977451;28;20530;-76
2023/03/12 03:59:02;;;;;;;6.43;3.80;;;0.80;99.90;;;;;;4975266;28;21975;-77
2023/03/12 04:01:30;;;;;;;6.28;2.90;;;0.90;99.90;;;;;;4955942;28;20426;-77
2023/03/12 04:03:56;;;;;;;5.18;3.88;;;0.80;99.90;;;;;;4978834;28;21125;-77
2023/03/12 04:06:22;;;;;;;8.93;3.33;;;0.90;99.90;;;;;;4980431;28;20891;-77
2023/03/12 04:08:47;;;;;;;7.63;3.63;;;0.90;99.90;;;;;;4979939;28;21344;-79
2023/03/12 04:11:19;;;;;;;5.87;3.30;;;0.90;99.90;;;;;;4977374;28;20517;-77
2023/03/12 04:13:45;;;;;;;5.65;3.17;;;0.90;99.90;;;;;;4980019;28;20462;-77
2023/03/12 04:16:11;;;;;;;6.07;3.88;;;0.90;99.90;;;;;;4978596;28;20472;-76
2023/03/12 04:18:37;;;;;;;6.63;3.08;;;0.90;99.90;;;;;;4977953;28;20430;-77
2023/03/12 04:21:04;;;;;;;6.10;3.45;;;0.90;99.90;;;;;;4980852;28;20434;-76
2023/03/12 04:23:30;;;;;;;6.70;3.40;;;0.90;99.90;;;;;;4982426;28;20434;-76
2023/03/12 04:25:56;;;;;;;7.75;4.20;;;1.00;99.90;;;;;;4975329;28;20422;-76
2023/03/12 04:28:21;;;;;;;6.10;3.30;;;1.00;99.90;;;;;;4983521;28;20464;-76
2023/03/12 04:30:59;;;;;;;9.23;3.30;;;1.00;99.90;;;;;;4968752;28;20428;-77
2023/03/12 04:33:29;;;;;;;8.32;4.20;;;1.10;99.90;;;;;;4978982;28;20483;-77
2023/03/12 04:35:55;;;;;;;5.88;2.72;;;1.10;99.90;;;;;;4981471;28;20436;-77
2023/03/12 04:38:22;;;;;;;8.15;4.15;;;1.00;99.90;;;;;;4978046;28;20435;-78
2023/03/12 04:41:04;;;;;;;7.90;3.70;;;1.00;99.90;;;;;;4973777;28;20486;-78
2023/03/12 04:43:31;;;;;;;7.47;3.88;;;1.00;99.90;;;;;;4982948;28;20505;-78
2023/03/12 04:45:57;;;;;;;5.55;3.40;;;1.10;99.90;;;;;;4979285;28;20934;-77
2023/03/12 04:48:23;;;;;;;7.93;4.22;;;1.00;99.90;;;;;;4983885;28;20438;-77
2023/03/12 04:50:49;;;;;;;5.80;3.33;;;1.10;99.90;;;;;;4981124;28;20777;-78
2023/03/12 04:53:15;;;;;;;8.63;3.72;;;1.10;99.90;;;;;;4970866;28;20495;-77
2023/03/12 04:55:41;;;;;;;8.93;3.45;;;1.10;99.90;;;;;;4977956;28;20440;-77
2023/03/12 04:58:07;;;;;;;7.72;3.97;;;1.20;99.90;;;;;;4985879;28;20410;-78
2023/03/12 05:00:33;;;;;;;6.73;3.30;;;1.20;99.90;;;;;;4991157;28;20557;-78
2023/03/12 05:02:58;;;;;;;7.30;3.70;;;1.10;99.90;;;;;;4970946;28;20465;-77
2023/03/12 05:05:24;;;;;;;8.95;4.32;;;1.10;99.90;;;;;;4978632;28;20427;-76
2023/03/12 05:07:49;;;;;;;7.50;3.65;;;1.20;99.90;;;;;;4973136;28;20918;-78
2023/03/12 05:10:15;;;;;;;5.80;3.63;;;1.20;99.90;;;;;;4979653;28;21000;-77
2023/03/12 05:12:41;;;;;;;11.00;4.13;;;1.30;99.90;;;;;;4988325;28;20899;-77
2023/03/12 05:15:07;;;;;;;11.88;4.07;;;1.30;99.90;;;;;;4979645;28;20511;-77
2023/03/12 05:17:33;;;;;;;6.60;3.50;;;1.20;99.90;;;;;;4981290;28;20430;-76
2023/03/12 05:19:59;;;;;;;9.23;4.00;;;1.20;99.90;;;;;;4968642;28;20906;-78
2023/03/12 05:22:25;;;;;;;7.65;3.50;;;1.20;99.90;;;;;;4990984;28;20432;-77
2023/03/12 05:24:50;;;;;;;5.60;3.60;;;1.20;99.90;;;;;;4993923;28;20434;-77
2023/03/12 05:27:16;;;;;;;8.30;4.20;;;1.20;99.90;;;;;;4965555;28;20443;-77
2023/03/12 05:29:42;;;;;;;8.30;4.50;;;1.10;99.90;;;;;;5015327;28;20912;-77
2023/03/12 05:32:07;;;;;;;8.37;3.87;;;1.20;99.90;;;;;;4976479;28;20430;-77
2023/03/12 05:34:33;;;;;;;7.37;4.17;;;1.20;99.90;;;;;;4986720;28;20762;-77
2023/03/12 05:36:59;;;;;;;7.00;3.55;;;1.20;99.90;;;;;;4991988;28;20438;-77
2023/03/12 05:39:25;;;;;;;6.32;3.28;;;1.10;99.90;;;;;;4974738;28;20434;-78
2023/03/12 05:41:56;;;;;;;8.00;3.10;;;1.40;99.90;;;;;;4983685;28;21186;-79
2023/03/12 05:44:23;;;;;;;7.57;3.33;;;1.20;99.90;;;;;;4968406;28;20733;-78
2023/03/12 05:46:50;;;;;;;7.90;4.43;;;1.10;99.90;;;;;;4976362;28;20514;-78
2023/03/12 05:49:16;;;;;;;9.63;4.45;;;1.30;99.90;;;;;;4977666;28;20566;-79
2023/03/12 05:51:42;;;;;;;7.50;4.33;;;1.20;99.90;;;;;;4983632;28;20535;-78
2023/03/12 05:54:08;;;;;;;6.15;4.10;;;1.20;99.90;;;;;;4981835;28;20897;-78
2023/03/12 05:56:35;;;;;;;8.57;4.28;;;1.20;99.90;;;;;;4979992;28;20449;-77
2023/03/12 05:59:01;;;;;;;8.57;4.43;;;1.20;99.90;;;;;;4978083;28;20430;-78
2023/03/12 06:01:28;;;;;;;9.93;4.37;;;1.20;99.90;;;;;;4983500;28;20457;-78
2023/03/12 06:03:54;;;;;;;12.85;3.88;;;1.20;99.90;;;;;;4964009;28;21138;-78
2023/03/12 06:06:20;;;;;;;8.98;4.55;;;1.20;99.90;;;;;;4982666;28;20425;-77
2023/03/12 06:08:46;;;;;;;11.77;4.43;;;1.30;99.90;;;;;;4978545;28;20540;-78
2023/03/12 06:11:12;;;;;;;9.07;4.37;;;1.30;99.90;;;;;;4980310;28;20459;-77
2023/03/12 06:13:38;;;;;;;10.52;4.85;;;1.30;99.90;;;;;;4988808;28;20411;-77
2023/03/12 06:16:14;;;;;;;7.57;3.85;;;1.40;99.90;;;;;;4979345;28;20915;-78
2023/03/12 06:18:40;;;;;;;8.93;4.35;;;1.30;99.90;;;;;;4986490;28;20920;-78
2023/03/12 06:21:21;;;;;;;7.30;3.35;;;1.40;99.90;;;;;;4985921;28;20437;-77
2023/03/12 06:23:48;;;;;;;7.43;4.20;;;1.30;99.90;;;;;;4971282;28;20549;-76
2023/03/12 06:26:14;;;;;;;7.65;3.60;;;1.40;99.90;;;;;;4976136;28;20455;-77
2023/03/12 06:28:40;;;;;;;14.98;4.75;;;1.40;99.90;;;;;;4984874;28;20530;-77
2023/03/12 06:31:06;;;;;;;10.52;4.72;;;1.40;99.90;;;;;;4985498;28;20538;-77
2023/03/12 06:33:33;;;;;;;7.83;4.10;;;1.50;99.90;;;;;;4987263;28;20548;-77
2023/03/12 06:36:01;;;;;;;7.72;4.10;;;1.50;99.90;;;;;;4985579;28;20434;-77
2023/03/12 06:38:28;;;;;;;7.00;4.30;;;1.40;99.90;;;;;;5016033;28;20461;-78
2023/03/12 06:41:02;;;;;;;12.18;3.85;;;1.50;99.90;;;;;;4976503;28;20426;-77
2023/03/12 06:43:30;;;;;;;8.15;3.80;;;1.50;99.90;;;;;;4973262;28;20430;-79
2023/03/12 06:45:57;;;;;;;7.10;3.92;;;1.50;99.90;;;;;;4982241;28;20580;-77
2023/03/12 06:48:25;;;;;;;9.47;4.67;;;1.60;99.90;;;;;;4985373;28;20419;-77
2023/03/12 06:50:51;;;;;;;10.77;4.20;;;1.50;99.90;;;;;;4980008;28;20427;-77
2023/03/12 06:53:17;;;;;;;9.53;4.50;;;1.40;99.90;;;;;;4985208;28;20495;-79
2023/03/12 06:55:44;;;;;;;11.07;5.23;;;1.30;99.90;;;;;;5011999;28;20446;-78
2023/03/12 06:58:10;;;;;;;8.63;4.53;;;1.30;99.90;;;;;;4986548;28;20552;-78
2023/03/12 07:00:36;;;;;;;10.13;5.03;;;1.30;99.90;;;;;;4994235;28;20466;-77
2023/03/12 07:03:02;;;;;;;9.90;5.10;;;1.40;99.90;;;;;;4979568;28;20515;-77
2023/03/12 07:05:28;;;;;;;7.45;4.60;;;1.30;99.90;;;;;;4983472;28;20423;-77
2023/03/12 07:07:54;;;;;;;13.00;5.50;;;1.20;99.90;;;;;;4982581;28;20983;-76
2023/03/12 07:10:19;;;;;;;11.10;5.43;;;1.30;99.90;;;;;;4988841;28;20430;-79
2023/03/12 07:12:45;;;;;;;9.07;5.73;;;1.20;99.90;;;;;;4981698;28;20892;-78
2023/03/12 07:15:11;;;;;;;8.40;5.13;;;1.20;99.90;;;;;;4981413;28;20438;-78
2023/03/12 07:17:37;;;;;;;9.80;6.00;;;1.10;99.90;;;;;;5013592;28;20433;-78
2023/03/12 07:20:03;;;;;;;10.45;5.65;;;1.20;99.90;;;;;;4990766;28;20789;-79
2023/03/12 07:22:30;;;;;;;12.52;6.38;;;1.00;99.90;;;;;;4990245;28;21440;-78
2023/03/12 07:24:56;;;;;;;8.48;6.03;;;1.00;99.90;;;;;;4984493;28;20484;-78
2023/03/12 07:27:21;;;;;;;12.38;6.82;;;1.00;99.90;;;;;;4977105;28;20424;-79
2023/03/12 07:29:47;;;;;;;13.63;6.57;;;1.00;99.90;;;;;;4981408;28;20462;-78
2023/03/12 07:32:13;;;;;;;11.97;6.97;;;1.00;99.90;;;;;;4987357;28;20502;-77
2023/03/12 07:34:38;;;;;;;15.07;7.30;;;1.00;99.90;;;;;;4982120;28;20435;-77
2023/03/12 07:37:04;;;;;;;13.00;7.23;;;1.00;99.90;;;;;;4980802;28;20509;-77
2023/03/12 07:39:30;;;;;;;12.10;7.70;;;0.90;99.90;;;;;;4985036;28;20426;-77
2023/03/12 07:41:56;;;;;;;12.60;7.22;;;0.90;99.90;;;;;;4984597;28;20509;-77
2023/03/12 07:44:21;;;;;;;14.10;7.88;;;1.00;99.90;;;;;;4980561;28;20542;-77
2023/03/12 07:46:47;;;;;;;14.65;7.90;;;0.90;99.90;;;;;;4977110;28;20446;-77
2023/03/12 07:49:13;;;;;;;13.20;7.67;;;1.00;99.90;;;;;;4981455;28;20534;-78
2023/03/12 07:51:38;;;;;;;13.67;7.93;;;1.20;99.90;;;;;;4981248;28;20477;-77
2023/03/12 07:54:04;;;;;;;13.07;8.43;;;1.10;99.90;;;;;;4980585;28;20884;-77
2023/03/12 07:56:30;;;;;;;11.33;7.73;;;1.10;99.90;;;;;;4984140;28;21078;-77
2023/03/12 07:58:56;;;;;;;12.63;7.93;;;1.20;99.90;;;;;;4991148;28;20462;-76
2023/03/12 08:01:24;;;;;;;10.40;7.18;;;1.20;99.90;;;;;;4984591;28;20419;-77
2023/03/12 08:03:49;;;;;;;13.77;8.10;;;1.10;99.90;;;;;;4972837;28;20431;-77
2023/03/12 08:06:15;;;;;;;9.77;7.43;;;1.10;99.90;;;;;;4977330;28;20889;-77
2023/03/12 08:08:41;;;;;;;10.93;7.37;;;1.20;99.90;;;;;;4980575;28;20430;-77
2023/03/12 08:11:08;;;;;;;9.03;7.13;;;1.20;99.90;;;;;;4965002;28;20443;-77
2023/03/12 08:13:34;;;;;;;11.45;7.38;;;1.30;99.90;;;;;;4979895;28;20430;-75
2023/03/12 08:15:59;;;;;;;11.10;6.78;;;1.20;99.90;;;;;;4980433;28;20436;-76
2023/03/12 08:18:25;;;;;;;9.15;6.88;;;1.30;99.90;;;;;;4984764;28;20422;-77
2023/03/12 08:20:53;;;;;;;11.90;8.15;;;1.30;99.90;;;;;;4981148;28;20789;-77
2023/03/12 08:23:19;;;;;;;13.80;8.02;;;1.20;99.90;;;;;;4984196;28;20800;-78
2023/03/12 08:25:46;;;;;;;13.73;8.13;;;1.20;99.90;;;;;;4984580;28;20991;-76
2023/03/12 08:28:12;;;;;;;12.40;8.13;;;1.30;99.90;;;;;;4977062;28;20584;-76
2023/03/12 08:30:38;;;;;;;12.85;7.78;;;1.30;99.90;;;;;;4980498;28;20798;-75
2023/03/12 08:33:04;;;;;;;15.35;8.70;;;1.30;99.90;;;;;;4979868;28;20499;-75
2023/03/12 08:35:29;;;;;;;13.07;8.18;;;1.20;99.90;;;;;;4980428;28;20446;-73
2023/03/12 08:37:55;;;;;;;15.18;9.25;;;1.20;99.90;;;;;;4989841;28;20484;-77
2023/03/12 08:40:23;;;;;;;14.33;9.73;;;1.30;99.90;;;;;;4985878;28;20460;-75
2023/03/12 08:42:49;;;;;;;13.50;9.88;;;1.30;99.90;;;;;;4983261;28;20440;-77
2023/03/12 08:45:15;;;;;;;14.40;9.63;;;1.30;99.90;;;;;;4972774;28;20430;-75
2023/03/12 08:47:42;;;;;;;15.10;9.90;;;1.30;99.90;;;;;;4981406;28;20423;-75
2023/03/12 08:50:10;;;;;;;17.73;11.03;;;1.30;99.90;;;;;;4979667;28;20435;-77
2023/03/12 08:52:35;;;;;;;14.68;10.05;;;1.30;99.90;;;;;;4990052;28;22372;-75
2023/03/12 08:55:01;;;;;;;15.20;10.38;;;1.50;99.90;;;;;;4976510;28;20547;-76
2023/03/12 08:57:27;;;;;;;13.82;10.93;;;1.40;99.90;;;;;;4981474;28;21101;-75
2023/03/12 08:59:53;;;;;;;15.23;9.97;;;1.50;99.90;;;;;;4978680;28;21039;-75
2023/03/12 09:02:19;;;;;;;16.70;10.65;;;1.60;99.90;;;;;;4977547;28;20638;-76
2023/03/12 09:04:48;;;;;;;13.55;9.93;;;1.50;99.90;;;;;;4995780;28;21011;-76
2023/03/12 09:07:17;;;;;;;16.60;9.90;;;1.60;99.90;;;;;;4969980;28;20426;-78
2023/03/12 09:09:43;;;;;;;14.27;10.40;;;1.50;99.90;;;;;;4983167;28;20427;-75
2023/03/12 09:12:10;;;;;;;13.18;8.82;;;1.60;99.90;;;;;;4975603;28;20509;-75
2023/03/12 09:14:36;;;;;;;15.40;9.93;;;1.80;99.90;;;;;;4987806;28;20430;-74
2023/03/12 09:17:02;;;;;;;12.47;8.77;;;1.70;99.90;;;;;;4985461;28;20503;-76
2023/03/12 09:19:28;;;;;;;15.52;9.30;;;1.70;99.90;;;;;;4983218;28;20426;-76
2023/03/12 09:21:53;;;;;;;10.85;8.23;;;1.70;99.90;;;;;;4985822;28;20964;-76
2023/03/12 09:24:19;;;;;;;15.20;9.00;;;1.80;99.90;;;;;;5000945;28;20429;-76
2023/03/12 09:26:45;;;;;;;12.03;9.23;;;1.80;99.90;;;;;;4986267;28;20490;-76
2023/03/12 09:29:11;;;;;;;12.38;9.77;;;2.00;99.90;;;;;;4975931;28;20432;-76
2023/03/12 09:31:37;;;;;;;12.73;9.10;;;1.90;99.90;;;;;;4984264;28;20493;-75
2023/03/12 09:34:03;;;;;;;13.15;8.85;;;1.90;99.90;;;;;;4985775;28;20427;-76
2023/03/12 09:36:29;;;;;;;13.45;9.27;;;1.90;99.90;;;;;;4984799;28;20548;-76
2023/03/12 09:38:55;;;;;;;15.25;9.60;;;2.00;99.90;;;;;;4960080;28;20491;-75
2023/03/12 09:41:26;;;;;;;13.27;9.03;;;2.00;99.90;;;;;;4976131;28;20925;-76
2023/03/12 09:44:19;;;;;;;11.53;9.33;;;1.90;99.90;;;;;;4974095;28;20502;-76
2023/03/12 09:46:52;;;;;;;10.48;8.48;;;2.00;99.90;;;;;;4982741;28;20441;-75
2023/03/12 09:49:45;;;;;;;13.40;10.23;;;2.00;99.90;;;;;;4988811;28;20546;-75
2023/03/12 09:52:28;;;;;;;12.60;10.00;;;2.10;99.90;;;;;;4984630;28;20425;-75
2023/03/12 09:55:01;;;;;;;12.57;9.63;;;2.10;99.90;;;;;;4981579;28;20931;-77
2023/03/12 09:57:28;;;;;;;13.20;9.65;;;2.20;99.90;;;;;;4968324;28;20436;-76
2023/03/12 09:59:55;;;;;;;17.55;10.43;;;2.30;99.90;;;;;;4965899;28;20443;-76
2023/03/12 10:02:28;;;;;;;16.85;10.35;;;2.20;99.90;;;;;;4982990;28;20431;-75
2023/03/12 10:05:16;;;;;;;12.90;10.73;;;2.30;99.90;;;;;;4980778;28;20435;-75
2023/03/12 10:08:11;;;;;;;11.48;8.60;;;2.40;99.90;;;;;;4985769;28;20517;-76
2023/03/12 10:10:44;;;;;;;9.07;7.63;;;2.50;99.90;;;;;;4982740;28;20431;-76
2023/03/12 10:13:32;;;;;;;12.63;8.30;;;2.50;99.90;;;;;;4977434;28;20454;-76
2023/03/12 10:16:27;;;;;;;13.55;8.75;;;2.70;99.90;;;;;;4975613;28;20480;-77
2023/03/12 10:19:11;;;;;;;9.35;8.40;;;2.70;99.90;;;;;;4983217;28;20475;-77
2023/03/12 10:22:00;;;;;;;8.75;7.82;;;2.70;99.90;;;;;;4978566;28;20489;-75
2023/03/12 10:24:58;;;;;;;13.82;8.93;;;2.80;99.90;;;;;;4981816;28;20829;-75
2023/03/12 10:27:28;;;;;;;12.95;9.13;;;2.80;99.90;;;;;;4969793;28;20454;-75
2023/03/12 10:29:55;;;;;;;10.57;9.05;;;2.90;99.90;;;;;;4977663;28;20436;-75
2023/03/12 10:32:27;;;;;;;12.43;8.85;;;3.00;99.90;;;;;;4976591;28;21012;-76
2023/03/12 10:35:03;;;;;;;12.40;9.20;;;3.00;99.90;;;;;;4963927;28;20416;-74
2023/03/12 10:37:37;;;;;;;12.23;9.60;;;3.10;99.90;;;;;;4980581;28;20507;-75
2023/03/12 10:40:04;;;;;;;12.05;9.35;;;3.20;99.90;;;;;;4984037;28;20528;-76
2023/03/12 10:42:31;;;;;;;13.07;10.02;;;3.20;99.90;;;;;;4983291;28;20537;-76
2023/03/12 10:45:09;;;;;;;12.65;9.82;;;3.30;99.90;;;;;;4988680;28;20407;-76
2023/03/12 10:47:35;;;;;;;11.93;9.73;;;3.30;99.90;;;;;;4993518;28;20782;-76
2023/03/12 10:50:23;;;;;;;15.57;11.05;;;3.40;99.90;;;;;;4982224;28;20442;-75
2023/03/12 10:52:50;;;;;;;15.43;12.35;;;3.50;99.90;;;;;;4969300;28;20432;-77
2023/03/12 10:55:31;;;;;;;14.57;11.40;;;3.50;99.90;;;;;;5003342;28;20430;-76
2023/03/12 10:57:57;;;;;;;14.75;11.55;;;3.70;99.90;;;;;;4991048;28;20445;-74
2023/03/12 11:00:26;;;;;;;15.52;11.95;;;3.80;99.90;;;;;;5003113;28;20427;-76
2023/03/12 11:03:04;;;;;;;13.88;11.65;;;3.70;99.90;;;;;;4971380;28;20477;-76
2023/03/12 11:05:36;;;;;;;16.45;11.88;;;3.90;99.90;;;;;;4996697;28;20435;-76
2023/03/12 11:08:03;;;;;;;16.48;12.50;;;3.90;99.90;;;;;;5007987;28;20488;-77
2023/03/12 11:10:31;;;;;;;18.02;13.55;;;4.00;99.90;;;;;;4985719;28;20507;-76
2023/03/12 11:13:20;;;;;;;17.83;13.18;;;4.10;99.90;;;;;;5016814;28;20459;-76
2023/03/12 11:15:46;;;;;;;17.05;12.30;;;4.10;99.90;;;;;;4965423;28;20436;-74
2023/03/12 11:18:39;;;;;;;18.73;13.65;;;4.20;99.90;;;;;;4959952;28;20447;-75
2023/03/12 11:21:07;;;;;;;17.08;13.55;;;4.20;99.90;;;;;;4980716;28;20439;-76
2023/03/12 11:23:34;;;;;;;17.52;14.35;;;4.30;99.90;;;;;;4990996;28;20438;-75
2023/03/12 11:26:03;;;;;;;21.75;14.55;;;4.30;99.90;;;;;;4975173;28;20490;-75
2023/03/12 11:28:41;;;;;;;15.13;13.15;;;4.30;99.90;;;;;;4980766;28;20547;-76
2023/03/12 11:31:23;;;;;;;17.93;13.77;;;4.40;99.90;;;;;;4981993;28;20509;-76
2023/03/12 11:33:51;;;;;;;17.87;14.73;;;4.40;99.90;;;;;;5014874;28;20505;-76
2023/03/12 11:36:36;;;;;;;17.10;14.82;;;4.50;99.90;;;;;;4999203;28;20919;-76
2023/03/12 11:39:16;;;;;;;19.15;14.65;;;4.60;99.90;;;;;;4981352;28;20416;-76
2023/03/12 11:42:02;;;;;;;18.83;15.70;;;4.70;99.90;;;;;;4966551;28;20428;-76
2023/03/12 11:45:03;;;;;;;20.83;16.45;;;4.90;99.90;;;;;;4978468;28;20493;-75
2023/03/12 11:47:47;;;;;;;20.25;15.85;;;5.00;99.90;;;;;;4996858;28;20431;-75
2023/03/12 11:50:19;;;;;;;22.33;17.02;;;5.10;99.90;;;;;;4982833;28;20750;-76
2023/03/12 11:53:04;;;;;;;21.20;15.65;;;5.20;99.90;;;;;;4968279;28;20515;-75
2023/03/12 11:56:01;;;;;;;20.38;15.85;;;5.30;99.90;;;;;;4965151;28;20453;-76
2023/03/12 11:58:48;;;;;;;22.40;16.90;;;5.30;99.90;;;;;;4930962;28;20498;-76
2023/03/12 12:01:45;;;;;;;20.63;15.75;;;5.40;99.90;;;;;;4965547;28;20777;-75
2023/03/12 12:04:45;;;;;;;22.67;17.92;;;5.60;99.90;;;;;;4966529;28;20436;-76
2023/03/12 12:07:35;;;;;;;26.87;18.17;;;5.70;99.90;;;;;;4981827;28;20499;-76
2023/03/12 12:10:26;;;;;;;23.77;18.48;;;5.90;99.90;;;;;;4984499;28;20431;-75
2023/03/12 12:13:10;;;;;;;23.15;17.52;;;6.10;99.90;;;;;;4967353;28;20426;-76
2023/03/12 12:16:24;;;;;;;25.98;18.48;;;6.10;99.90;;;;;;4984896;28;20437;-75
2023/03/12 12:19:11;;;;;;;27.97;20.07;;;6.40;99.90;;;;;;4997453;28;20728;-76
2023/03/12 12:21:45;;;;;;;25.92;18.50;;;6.50;99.90;;;;;;4980268;28;20430;-75
2023/03/12 12:24:52;;;;;;;31.67;19.33;;;6.60;99.90;;;;;;4976770;28;20441;-76
2023/03/12 12:27:30;;;;;;;32.97;20.80;;;6.80;99.90;;;;;;4978401;28;21005;-76
2023/03/12 12:30:11;;;;;;;30.25;19.17;;;6.90;99.90;;;;;;4989888;28;20505;-76
2023/03/12 12:32:58;;;;;;;37.50;20.70;;;7.00;99.90;;;;;;4985027;28;20840;-75
2023/03/12 12:35:36;;;;;;;35.88;20.75;;;7.00;99.90;;;;;;4994107;28;20454;-75
2023/03/12 12:38:08;;;;;;;34.33;18.73;;;7.00;99.90;;;;;;5012340;28;20548;-76
2023/03/12 12:40:41;;;;;;;35.92;18.75;;;7.20;99.90;;;;;;4982705;28;20439;-76
2023/03/12 12:43:18;;;;;;;39.92;19.80;;;7.10;99.90;;;;;;4984384;28;20488;-76
2023/03/12 12:45:47;;;;;;;38.33;18.70;;;7.30;99.90;;;;;;4983491;28;20433;-76
2023/03/12 12:48:37;;;;;;;39.57;18.53;;;7.40;99.90;;;;;;4992102;28;20796;-76
2023/03/12 12:51:04;;;;;;;36.45;16.67;;;7.50;99.90;;;;;;4982904;28;20845;-78
2023/03/12 12:53:39;;;;;;;38.20;15.30;;;7.80;99.90;;;;;;4979899;28;20431;-77
2023/03/12 12:56:30;;;;;;;37.03;13.55;;;7.90;99.90;;;;;;4975302;28;20533;-77
2023/03/12 12:59:26;;;;;;;40.58;12.98;;;7.80;99.90;;;;;;4968246;28;20493;-75
2023/03/12 13:01:57;;;;;;;41.00;12.20;;;8.10;99.90;;;;;;4982831;28;20438;-76